Toko, Russia
Current Conditions -  °F | °C
As of 2:00 AM on Monday 24 Nov 2014 (Local Time) from UEEE Reporting Station
Clear Clear  
Wind Chill: -20°   Ceiling: Unl
Heat Index: -20°   Visibility: 6mi
Dew Point: -26°   Wind: 2mph
Humidity: 76%   Direction: 350°N
Pressure: 29.97"   Gusts: NA
Location:  56.18°N, 131.02°E
Report Text: UEEE 231600Z 35001MPS CAVOK M29/M32 Q1015 NOSIG RMK QFE75223490150
Loading
Personal Weather Stations






























Interactive Weather Map New forecast layout! Learn more

10-Day Weather Forecast

Advertisements
Track Severe Weather on mobile